createdAt,value
2019-03-29T00:02:17.082Z,44.95
2019-03-29T00:04:50.625Z,53.65
2019-03-29T00:07:19.806Z,47.80
2019-03-29T00:09:50.015Z,51.20
2019-03-29T00:12:31.074Z,48.08
2019-03-29T00:15:01.722Z,49.50
2019-03-29T00:17:35.957Z,51.70
2019-03-29T00:20:10.969Z,47.88
2019-03-29T00:22:41.067Z,50.17
2019-03-29T00:25:11.242Z,58.83
2019-03-29T00:27:42.042Z,50.03
2019-03-29T00:30:12.299Z,48.10
2019-03-29T00:32:43.572Z,54.35
2019-03-29T00:35:14.458Z,51.37
2019-03-29T00:37:53.324Z,50.03
2019-03-29T00:40:15.536Z,55.65
2019-03-29T00:42:46.866Z,53.63
2019-03-29T00:45:21.102Z,53.70
2019-03-29T00:47:56.835Z,55.73
2019-03-29T00:50:27.117Z,49.03
2019-03-29T00:52:57.495Z,53.98
2019-03-29T00:55:26.755Z,48.75
2019-03-29T00:57:56.217Z,54.67
2019-03-29T01:00:31.353Z,58.15
2019-03-29T01:03:00.861Z,54.67
2019-03-29T01:05:31.657Z,53.30
2019-03-29T01:08:08.111Z,54.00
2019-03-29T01:10:34.962Z,55.10
2019-03-29T01:13:04.257Z,57.27
2019-03-29T01:15:37.603Z,55.70
2019-03-29T01:18:09.691Z,55.88
2019-03-29T01:20:42.647Z,63.28
2019-03-29T01:23:14.998Z,63.25
2019-03-29T01:25:44.703Z,57.20
2019-03-29T01:28:13.884Z,58.78
2019-03-29T01:30:46.514Z,62.23
2019-03-29T01:33:21.658Z,62.60
2019-03-29T01:35:53.261Z,62.05
2019-03-29T01:38:26.258Z,60.63
2019-03-29T01:40:59.091Z,64.30
2019-03-29T01:43:28.252Z,62.27
2019-03-29T01:45:59.756Z,65.75
2019-03-29T01:48:30.657Z,63.23
2019-03-29T01:51:01.318Z,64.00
2019-03-29T01:53:31.257Z,62.55
2019-03-29T01:56:00.409Z,60.98
2019-03-29T01:58:32.468Z,61.65
2019-03-29T02:01:02.315Z,61.20
2019-03-29T02:03:36.162Z,64.20
2019-03-29T02:06:07.615Z,59.38
2019-03-29T02:08:40.091Z,62.58
2019-03-29T02:11:09.261Z,62.50
2019-03-29T02:13:38.923Z,68.17
2019-03-29T02:16:10.071Z,67.82
2019-03-29T02:18:41.830Z,63.10
2019-03-29T02:21:11.298Z,64.00
2019-03-29T02:23:41.541Z,66.20
2019-03-29T02:26:10.791Z,60.30
2019-03-29T02:28:39.958Z,68.33
2019-03-29T02:31:11.128Z,73.60
2019-03-29T02:33:50.485Z,64.65
2019-03-29T02:36:19.764Z,71.00
2019-03-29T02:38:55.783Z,67.90
2019-03-29T02:41:22.874Z,75.45
2019-03-29T02:43:53.771Z,76.80
2019-03-29T02:46:25.626Z,74.92
2019-03-29T02:48:56.192Z,83.25
2019-03-29T02:51:25.455Z,81.87
2019-03-29T02:53:55.697Z,84.95
2019-03-29T02:56:24.852Z,85.85
2019-03-29T02:58:54.025Z,85.28
2019-03-29T03:01:23.266Z,84.47
2019-03-29T03:03:54.166Z,79.50
2019-03-29T03:06:23.475Z,91.63
2019-03-29T03:08:53.583Z,97.25
2019-03-29T03:11:22.834Z,98.87
2019-03-29T03:13:53.001Z,98.58
2019-03-29T03:16:22.246Z,97.80
2019-03-29T03:18:51.583Z,94.77
2019-03-29T03:21:21.848Z,93.90
2019-03-29T03:23:53.028Z,94.60
2019-03-29T03:26:23.749Z,97.57
2019-03-29T03:28:56.874Z,96.63
2019-03-29T03:33:57.864Z,103.97
2019-03-29T03:36:27.134Z,94.47
2019-03-29T03:38:57.519Z,105.03
2019-03-29T03:41:27.049Z,106.87
2019-03-29T03:44:03.012Z,94.30
2019-03-29T03:48:58.843Z,106.83
2019-03-29T03:51:28.076Z,106.47
2019-03-29T03:53:57.330Z,104.47
2019-03-29T03:56:26.493Z,103.27
2019-03-29T03:58:55.691Z,106.30
2019-03-29T04:01:25.016Z,98.45
2019-03-29T04:03:54.274Z,97.02
2019-03-29T04:06:24.539Z,106.12
2019-03-29T04:08:53.758Z,103.15
2019-03-29T04:11:23.939Z,98.97
2019-03-29T04:13:54.187Z,100.40
2019-03-29T04:16:23.512Z,112.03
2019-03-29T04:18:55.348Z,109.05
2019-03-29T04:21:25.564Z,105.15
2019-03-29T04:23:54.768Z,105.83
2019-03-29T04:26:26.069Z,100.15
2019-03-29T04:29:04.241Z,110.50
2019-03-29T04:31:27.878Z,104.38
2019-03-29T04:34:00.690Z,100.18
2019-03-29T04:36:30.113Z,104.72
2019-03-29T04:39:05.988Z,102.42
2019-03-29T04:41:36.206Z,105.12
2019-03-29T04:44:05.392Z,103.65
2019-03-29T04:46:36.194Z,101.67
2019-03-29T04:49:05.394Z,102.75
2019-03-29T04:51:36.738Z,111.52
2019-03-29T04:54:05.939Z,108.92
2019-03-29T04:56:36.263Z,105.67
2019-03-29T04:59:05.581Z,108.37
2019-03-29T05:01:34.880Z,103.53
2019-03-29T05:04:04.127Z,106.22
2019-03-29T05:06:33.400Z,98.15
2019-03-29T05:09:05.254Z,103.90
2019-03-29T05:11:34.531Z,114.25
2019-03-29T05:14:03.850Z,108.57
2019-03-29T05:16:33.018Z,106.58
2019-03-29T05:19:06.030Z,101.18
2019-03-29T05:24:03.814Z,110.97
2019-03-29T05:26:35.017Z,110.20
2019-03-29T05:29:04.324Z,107.45
2019-03-29T05:31:34.084Z,117.65
2019-03-29T05:34:04.274Z,111.68
2019-03-29T05:36:33.579Z,114.37
2019-03-29T05:39:02.804Z,115.85
2019-03-29T05:41:32.001Z,114.17
2019-03-29T05:44:01.200Z,112.57
2019-03-29T05:46:32.327Z,111.72
2019-03-29T05:49:02.619Z,108.55
2019-03-29T05:51:32.924Z,109.67
2019-03-29T05:54:02.173Z,118.57
2019-03-29T05:56:33.465Z,115.52
2019-03-29T05:59:02.937Z,118.97
2019-03-29T06:01:32.201Z,116.22
2019-03-29T06:04:01.382Z,123.30
2019-03-29T06:06:31.662Z,114.65
2019-03-29T06:09:01.954Z,121.57
2019-03-29T06:11:32.524Z,115.52
2019-03-29T06:14:03.174Z,117.77
2019-03-29T06:16:38.906Z,111.12
2019-03-29T06:19:04.625Z,122.13
2019-03-29T06:21:34.015Z,122.42
2019-03-29T06:24:04.918Z,122.58
2019-03-29T06:26:35.104Z,117.93
2019-03-29T06:29:04.317Z,110.42
2019-03-29T06:31:33.835Z,126.27
2019-03-29T06:34:06.596Z,112.05
2019-03-29T06:36:36.749Z,117.13
2019-03-29T06:39:07.522Z,112.08
2019-03-29T06:41:40.506Z,126.65
2019-03-29T06:44:09.819Z,106.63
2019-03-29T06:46:39.157Z,113.35
2019-03-29T06:49:08.421Z,115.67
2019-03-29T06:51:37.692Z,112.97
2019-03-29T06:54:07.984Z,113.62
2019-03-29T06:56:37.215Z,112.12
2019-03-29T06:59:06.513Z,111.08
2019-03-29T07:01:35.767Z,104.45
2019-03-29T07:04:04.937Z,107.95
2019-03-29T07:06:34.197Z,110.92
2019-03-29T07:09:04.805Z,113.25
2019-03-29T07:11:35.730Z,107.72
2019-03-29T07:14:06.066Z,107.85
2019-03-29T07:16:35.561Z,110.05
2019-03-29T07:19:05.189Z,107.00
2019-03-29T07:21:34.711Z,94.95
2019-03-29T07:24:05.177Z,104.85
2019-03-29T07:26:35.333Z,98.17
2019-03-29T07:29:07.253Z,98.40
2019-03-29T07:31:37.484Z,93.40
2019-03-29T07:34:06.847Z,96.80
2019-03-29T07:36:37.116Z,91.00
2019-03-29T07:39:06.379Z,97.25
2019-03-29T07:41:36.526Z,94.17
2019-03-29T07:44:06.778Z,89.37
2019-03-29T07:46:37.259Z,91.70
2019-03-29T07:49:08.046Z,92.85
2019-03-29T07:51:37.317Z,88.67
2019-03-29T07:54:07.727Z,85.15
2019-03-29T07:56:37.022Z,77.67
2019-03-29T07:59:08.914Z,85.67
2019-03-29T08:01:39.054Z,73.85
2019-03-29T08:04:09.608Z,76.30
2019-03-29T08:06:40.811Z,75.55
2019-03-29T08:09:21.684Z,74.40
2019-03-29T08:11:46.580Z,74.58
2019-03-29T08:14:15.098Z,74.42
2019-03-29T08:16:46.323Z,76.57
2019-03-29T08:19:17.132Z,68.72
2019-03-29T08:21:47.486Z,66.90
2019-03-29T08:24:16.776Z,65.97
2019-03-29T08:26:46.063Z,67.92
2019-03-29T08:29:15.352Z,69.67
2019-03-29T08:31:44.601Z,68.62
2019-03-29T08:34:14.426Z,69.40
2019-03-29T08:36:44.727Z,70.10
2019-03-29T08:39:27.383Z,67.55
2019-03-29T08:41:44.948Z,69.47
2019-03-29T08:44:14.892Z,69.67
2019-03-29T08:46:46.536Z,66.82
2019-03-29T08:49:17.006Z,69.25
2019-03-29T08:51:49.107Z,63.73
2019-03-29T08:54:20.949Z,66.30
2019-03-29T08:56:52.815Z,68.90
2019-03-29T08:59:22.134Z,64.70
2019-03-29T09:01:52.564Z,67.92
2019-03-29T09:04:22.771Z,59.30
2019-03-29T09:06:54.937Z,57.98
2019-03-29T09:09:24.650Z,57.55
2019-03-29T09:11:53.962Z,53.42
2019-03-29T09:14:25.233Z,52.83
2019-03-29T09:16:54.511Z,54.13
2019-03-29T09:19:24.693Z,51.23
2019-03-29T09:21:53.927Z,52.05
2019-03-29T09:24:25.719Z,51.05
2019-03-29T09:26:55.043Z,51.15
2019-03-29T09:29:24.289Z,46.98
2019-03-29T09:31:56.613Z,45.43
2019-03-29T09:34:28.873Z,44.42
2019-03-29T09:37:00.124Z,43.60
2019-03-29T09:39:30.885Z,40.80
2019-03-29T09:42:00.145Z,39.60
2019-03-29T09:44:29.455Z,42.15
2019-03-29T09:46:59.645Z,34.55
2019-03-29T09:49:31.154Z,35.90
2019-03-29T09:52:02.011Z,31.97
2019-03-29T09:54:32.151Z,29.92
2019-03-29T09:57:01.746Z,34.10
2019-03-29T09:59:32.822Z,27.13
2019-03-29T10:02:02.715Z,29.80
2019-03-29T10:04:34.574Z,26.05
2019-03-29T10:07:03.833Z,25.25
2019-03-29T10:09:35.555Z,29.02
2019-03-29T10:12:05.433Z,23.85
2019-03-29T10:14:34.755Z,21.75
2019-03-29T10:17:04.061Z,25.00
2019-03-29T10:19:33.525Z,23.77
2019-03-29T10:22:02.925Z,22.58
2019-03-29T10:24:32.173Z,19.52
2019-03-29T10:27:01.373Z,18.85
2019-03-29T10:29:30.690Z,18.20
2019-03-29T10:32:00.077Z,22.95
2019-03-29T10:34:30.398Z,19.70
2019-03-29T10:36:59.584Z,20.57
2019-03-29T10:39:28.995Z,14.07
2019-03-29T10:41:58.269Z,16.50
2019-03-29T10:44:28.383Z,13.95
2019-03-29T10:46:57.615Z,18.75
2019-03-29T10:49:26.879Z,23.05
2019-03-29T10:51:56.173Z,17.85
2019-03-29T10:54:25.454Z,20.88
2019-03-29T10:56:55.831Z,22.98
2019-03-29T10:59:27.731Z,24.05
2019-03-29T11:01:58.115Z,20.43
2019-03-29T11:04:31.732Z,20.12
2019-03-29T11:07:00.381Z,22.27
2019-03-29T11:09:30.661Z,14.05
2019-03-29T11:11:59.907Z,16.35
2019-03-29T11:14:29.225Z,16.37
2019-03-29T11:16:58.523Z,15.85
2019-03-29T11:19:31.295Z,16.35
2019-03-29T11:24:40.553Z,14.55
2019-03-29T11:27:11.496Z,18.92
2019-03-29T11:29:41.296Z,16.77
2019-03-29T11:32:11.546Z,14.05
2019-03-29T11:34:43.115Z,16.85
2019-03-29T11:37:16.684Z,14.07
2019-03-29T11:39:45.959Z,14.70
2019-03-29T11:42:20.129Z,15.35
2019-03-29T11:44:54.306Z,12.75
2019-03-29T11:47:24.347Z,14.70
2019-03-29T11:49:56.020Z,16.15
2019-03-29T11:52:25.302Z,12.53
2019-03-29T11:54:57.111Z,11.18
2019-03-29T11:57:27.454Z,9.93
2019-03-29T11:59:57.657Z,10.48
2019-03-29T12:02:31.909Z,14.73
2019-03-29T12:05:02.046Z,14.38
2019-03-29T12:07:32.322Z,13.30
2019-03-29T12:10:02.845Z,10.00
2019-03-29T12:12:32.570Z,17.25
2019-03-29T12:15:01.856Z,12.45
2019-03-29T12:17:33.298Z,13.43
2019-03-29T12:20:04.020Z,11.97
2019-03-29T12:22:34.273Z,13.18
2019-03-29T12:25:07.162Z,15.78
2019-03-29T12:27:36.403Z,14.83
2019-03-29T12:30:08.780Z,21.20
2019-03-29T12:32:37.958Z,20.60
2019-03-29T12:35:10.149Z,15.45
2019-03-29T12:37:41.021Z,18.07
2019-03-29T12:40:11.715Z,15.90
2019-03-29T12:42:40.911Z,18.77
2019-03-29T12:45:11.690Z,16.32
2019-03-29T12:47:40.984Z,18.77
2019-03-29T12:50:10.263Z,16.48
2019-03-29T12:52:40.027Z,16.65
2019-03-29T12:55:10.234Z,18.50
2019-03-29T12:57:39.566Z,14.75
2019-03-29T13:00:08.941Z,18.82
2019-03-29T13:02:38.210Z,18.70
2019-03-29T13:05:07.400Z,17.27
2019-03-29T13:07:38.305Z,13.75
2019-03-29T13:10:08.542Z,12.80
2019-03-29T13:12:40.106Z,12.33
2019-03-29T13:15:10.329Z,11.20
2019-03-29T13:17:39.581Z,10.98
2019-03-29T13:20:08.860Z,9.65
2019-03-29T13:22:38.114Z,13.62
2019-03-29T13:25:18.156Z,10.23
2019-03-29T13:27:48.355Z,12.35
2019-03-29T13:30:17.743Z,11.12
2019-03-29T13:32:47.086Z,10.05
2019-03-29T13:35:17.348Z,12.47
2019-03-29T13:37:47.905Z,11.80
2019-03-29T13:40:21.053Z,10.95
2019-03-29T13:42:50.737Z,12.45
2019-03-29T13:45:20.961Z,12.60
2019-03-29T13:47:50.185Z,10.13
2019-03-29T13:50:20.630Z,12.10
2019-03-29T13:52:50.720Z,12.78
2019-03-29T13:55:19.939Z,13.18
2019-03-29T13:57:51.292Z,12.98
2019-03-29T14:00:20.507Z,13.30
2019-03-29T14:02:49.755Z,16.27
2019-03-29T14:05:20.158Z,15.05
2019-03-29T14:07:50.388Z,17.52
2019-03-29T14:10:24.137Z,16.23
2019-03-29T14:12:54.394Z,18.48
2019-03-29T14:15:24.420Z,17.98
2019-03-29T14:17:59.143Z,16.62
2019-03-29T14:20:35.139Z,19.12
2019-03-29T14:23:04.340Z,18.40
2019-03-29T14:25:33.676Z,18.57
2019-03-29T14:28:05.033Z,18.73
2019-03-29T14:30:36.229Z,17.50
2019-03-29T14:33:09.482Z,22.10
2019-03-29T14:35:40.325Z,20.75
2019-03-29T14:38:11.130Z,19.30
2019-03-29T14:40:40.666Z,19.92
2019-03-29T14:43:09.973Z,16.45
2019-03-29T14:45:41.560Z,19.37
2019-03-29T14:48:14.414Z,20.05
2019-03-29T14:50:43.724Z,17.42
2019-03-29T14:53:13.940Z,16.05
2019-03-29T14:55:44.518Z,16.82
2019-03-29T14:58:13.904Z,18.42
2019-03-29T15:00:44.440Z,22.10
2019-03-29T15:03:14.602Z,16.32
2019-03-29T15:05:43.873Z,19.95
2019-03-29T15:08:14.545Z,21.48
2019-03-29T15:10:46.005Z,20.30
2019-03-29T15:13:16.283Z,19.62
2019-03-29T15:15:46.520Z,16.57
2019-03-29T15:18:15.781Z,16.62
2019-03-29T15:20:53.588Z,19.30
2019-03-29T15:25:49.144Z,18.67
2019-03-29T15:28:37.443Z,16.95
2019-03-29T15:31:12.652Z,16.48
2019-03-29T15:33:55.657Z,14.78
2019-03-29T15:36:26.191Z,16.32
2019-03-29T15:39:13.522Z,16.15
2019-03-29T15:41:52.958Z,15.88
2019-03-29T15:44:26.857Z,16.93
2019-03-29T15:46:58.869Z,14.50
2019-03-29T15:49:33.289Z,13.68
2019-03-29T15:52:05.078Z,14.15
2019-03-29T15:54:48.087Z,13.43
2019-03-29T15:59:48.496Z,11.33
2019-03-29T16:02:19.830Z,14.47
2019-03-29T16:04:49.000Z,12.70
2019-03-29T16:07:19.363Z,9.55
2019-03-29T16:09:48.668Z,9.30
2019-03-29T16:12:18.121Z,10.82
2019-03-29T16:14:47.372Z,11.00
2019-03-29T16:17:18.566Z,15.30
2019-03-29T16:19:47.775Z,16.97
2019-03-29T16:22:17.946Z,10.58
2019-03-29T16:24:52.085Z,14.68
2019-03-29T16:29:52.428Z,15.60
2019-03-29T16:32:21.668Z,14.30
2019-03-29T16:34:51.197Z,13.83
2019-03-29T16:37:23.116Z,15.38
2019-03-29T16:39:53.443Z,14.58
2019-03-29T16:42:25.647Z,13.15
2019-03-29T16:44:58.440Z,17.50
2019-03-29T16:47:29.230Z,16.00
2019-03-29T16:49:58.470Z,18.50
2019-03-29T16:52:27.653Z,14.83
2019-03-29T16:54:56.977Z,12.95
2019-03-29T16:57:30.016Z,12.60
2019-03-29T16:59:59.367Z,15.48
2019-03-29T17:02:28.654Z,17.35
2019-03-29T17:04:59.457Z,13.40
2019-03-29T17:07:32.557Z,11.88
2019-03-29T17:10:01.848Z,13.10
2019-03-29T17:12:31.137Z,14.70
2019-03-29T17:15:01.389Z,13.60
2019-03-29T17:17:32.270Z,13.78
2019-03-29T17:20:01.602Z,14.18
2019-03-29T17:22:32.997Z,14.80
2019-03-29T17:25:03.421Z,12.05
2019-03-29T17:27:32.706Z,12.05
2019-03-29T17:30:03.138Z,11.75
2019-03-29T17:32:34.582Z,12.75
2019-03-29T17:35:08.631Z,14.18
2019-03-29T17:37:41.170Z,13.53
2019-03-29T17:40:12.032Z,14.50
2019-03-29T17:42:41.943Z,14.03
2019-03-29T17:45:11.282Z,13.55
2019-03-29T17:47:45.016Z,21.60
2019-03-29T17:52:46.110Z,11.90
2019-03-29T17:55:15.369Z,14.33
2019-03-29T17:57:46.139Z,14.45
2019-03-29T18:00:17.715Z,12.43
2019-03-29T18:02:47.937Z,12.07
2019-03-29T18:05:19.295Z,12.15
2019-03-29T18:07:48.588Z,10.10
2019-03-29T18:10:18.685Z,11.90
2019-03-29T18:12:49.205Z,13.13
2019-03-29T18:15:18.427Z,14.85
2019-03-29T18:17:50.699Z,15.72
2019-03-29T18:20:20.155Z,16.25
2019-03-29T18:22:49.499Z,14.98
2019-03-29T18:25:18.814Z,13.13
2019-03-29T18:27:50.988Z,23.30
2019-03-29T18:30:25.599Z,16.85
2019-03-29T18:32:59.191Z,16.90
2019-03-29T18:35:28.578Z,15.25
2019-03-29T18:37:57.827Z,16.37
2019-03-29T18:40:31.622Z,18.42
2019-03-29T18:43:01.864Z,16.37
2019-03-29T18:45:34.411Z,15.93
2019-03-29T18:48:07.642Z,14.70
2019-03-29T18:50:39.399Z,22.02
2019-03-29T18:53:09.583Z,16.73
2019-03-29T18:55:38.850Z,16.55
2019-03-29T18:58:08.148Z,19.73
2019-03-29T19:00:39.746Z,15.93
2019-03-29T19:03:11.920Z,15.60
2019-03-29T19:05:40.865Z,16.02
2019-03-29T19:08:11.118Z,19.73
2019-03-29T19:10:41.394Z,20.17
2019-03-29T19:13:13.794Z,18.75
2019-03-29T19:15:43.090Z,16.77
2019-03-29T19:18:12.411Z,22.65
2019-03-29T19:20:42.697Z,22.17
2019-03-29T19:23:11.975Z,19.60
2019-03-29T19:25:41.275Z,19.42
2019-03-29T19:28:12.608Z,23.20
2019-03-29T19:30:42.279Z,22.95
2019-03-29T19:33:13.458Z,20.50
2019-03-29T19:35:43.107Z,19.42
2019-03-29T19:38:12.285Z,27.02
2019-03-29T19:40:41.487Z,23.60
2019-03-29T19:43:10.735Z,19.82
2019-03-29T19:45:44.368Z,24.18
2019-03-29T19:48:14.561Z,26.45
2019-03-29T19:50:44.867Z,24.05
2019-03-29T19:53:14.267Z,21.25
2019-03-29T19:55:43.545Z,21.95
2019-03-29T19:58:13.909Z,29.65
2019-03-29T20:00:43.264Z,20.10
2019-03-29T20:03:13.541Z,30.20
2019-03-29T20:05:44.322Z,25.10
2019-03-29T20:08:13.615Z,25.27
2019-03-29T20:10:44.511Z,22.62
2019-03-29T20:13:15.067Z,25.60
2019-03-29T20:15:44.335Z,23.25
2019-03-29T20:18:17.749Z,24.87
2019-03-29T20:20:47.301Z,23.07
2019-03-29T20:23:20.106Z,26.62
2019-03-29T20:25:52.417Z,23.45
2019-03-29T20:28:22.612Z,20.70
2019-03-29T20:30:52.906Z,23.55
2019-03-29T20:33:24.016Z,24.82
2019-03-29T20:35:54.214Z,19.95
2019-03-29T20:38:23.454Z,22.45
2019-03-29T20:40:54.322Z,21.65
2019-03-29T20:43:24.577Z,20.05
2019-03-29T20:46:13.771Z,22.62
2019-03-29T20:48:49.883Z,22.17
2019-03-29T20:51:19.255Z,17.70
2019-03-29T20:53:48.522Z,24.43
2019-03-29T20:56:19.008Z,20.52
2019-03-29T20:58:49.982Z,24.67
2019-03-29T21:01:21.609Z,19.35
2019-03-29T21:03:53.975Z,20.57
2019-03-29T21:06:24.066Z,21.12
2019-03-29T21:08:54.423Z,22.52
2019-03-29T21:11:25.159Z,20.20
2019-03-29T21:13:55.602Z,19.92
2019-03-29T21:16:24.850Z,24.92
2019-03-29T21:18:55.282Z,23.10
2019-03-29T21:21:25.558Z,27.27
2019-03-29T21:23:56.087Z,22.30
2019-03-29T21:26:26.344Z,20.20
2019-03-29T21:28:56.123Z,19.87
2019-03-29T21:31:26.463Z,25.30
2019-03-29T21:33:55.763Z,21.33
2019-03-29T21:36:25.078Z,25.02
2019-03-29T21:38:55.319Z,21.70
2019-03-29T21:41:24.581Z,22.40
2019-03-29T21:43:54.355Z,23.32
2019-03-29T21:46:25.588Z,22.60
2019-03-29T21:48:55.072Z,22.30
2019-03-29T21:51:24.336Z,23.15
2019-03-29T21:53:53.585Z,25.77
2019-03-29T21:56:22.959Z,18.17
2019-03-29T21:58:56.271Z,22.52
2019-03-29T22:01:26.645Z,19.90
2019-03-29T22:03:55.973Z,20.68
2019-03-29T22:06:26.084Z,21.35
2019-03-29T22:08:56.374Z,20.48
2019-03-29T22:11:25.652Z,24.20
2019-03-29T22:13:55.921Z,22.58
2019-03-29T22:16:25.214Z,22.87
2019-03-29T22:18:57.588Z,21.17
2019-03-29T22:21:26.791Z,21.80
2019-03-29T22:23:56.055Z,22.20
2019-03-29T22:26:26.919Z,20.70
2019-03-29T22:28:56.190Z,23.75
2019-03-29T22:31:25.357Z,19.65
2019-03-29T22:33:55.133Z,22.10
2019-03-29T22:36:24.366Z,24.12
2019-03-29T22:38:54.663Z,20.77
2019-03-29T22:41:24.810Z,23.75
2019-03-29T22:43:55.579Z,23.27
2019-03-29T22:46:27.025Z,22.45
2019-03-29T22:48:56.320Z,25.72
2019-03-29T22:51:26.557Z,23.62
2019-03-29T22:53:55.798Z,26.10
2019-03-29T22:56:24.974Z,26.07
2019-03-29T22:58:54.210Z,24.23
2019-03-29T23:01:23.466Z,25.37
2019-03-29T23:03:54.109Z,24.07
2019-03-29T23:06:23.652Z,23.70
2019-03-29T23:08:53.755Z,23.42
2019-03-29T23:11:23.006Z,22.67
2019-03-29T23:13:52.187Z,21.48
2019-03-29T23:16:21.466Z,20.27
2019-03-29T23:18:50.656Z,24.47
2019-03-29T23:21:19.836Z,22.90
2019-03-29T23:23:51.426Z,18.65
2019-03-29T23:26:22.570Z,19.92
2019-03-29T23:28:53.013Z,18.73
2019-03-29T23:31:23.276Z,21.87
2019-03-29T23:33:52.538Z,17.17
2019-03-29T23:36:22.742Z,16.65
2019-03-29T23:38:53.169Z,21.33
2019-03-29T23:41:24.429Z,18.05
2019-03-29T23:43:53.730Z,18.95
2019-03-29T23:46:24.618Z,15.58
2019-03-29T23:48:53.806Z,17.32
2019-03-29T23:51:24.984Z,20.05
2019-03-29T23:53:54.283Z,19.45
2019-03-29T23:56:31.007Z,17.15
2019-03-29T23:59:02.919Z,18.12
